sensor_id;sensor_type;location;lat;lon;timestamp;temperature;humidity
65324;SHT31;51937;48.364;11.378;2022-11-12T00:00:50;9.98;52.21
65324;SHT31;51937;48.364;11.378;2022-11-12T00:03:16;9.97;52.15
65324;SHT31;51937;48.364;11.378;2022-11-12T00:05:43;9.98;52.14
65324;SHT31;51937;48.364;11.378;2022-11-12T00:08:08;9.97;52.21
65324;SHT31;51937;48.364;11.378;2022-11-12T00:10:34;9.97;52.26
65324;SHT31;51937;48.364;11.378;2022-11-12T00:12:59;9.93;52.31
65324;SHT31;51937;48.364;11.378;2022-11-12T00:15:25;9.94;52.36
65324;SHT31;51937;48.364;11.378;2022-11-12T00:17:50;9.91;52.38
65324;SHT31;51937;48.364;11.378;2022-11-12T00:20:16;9.90;52.43
65324;SHT31;51937;48.364;11.378;2022-11-12T00:22:41;9.91;52.35
65324;SHT31;51937;48.364;11.378;2022-11-12T00:25:07;9.90;52.42
65324;SHT31;51937;48.364;11.378;2022-11-12T00:27:33;9.88;52.43
65324;SHT31;51937;48.364;11.378;2022-11-12T00:29:59;9.88;52.42
65324;SHT31;51937;48.364;11.378;2022-11-12T00:32:24;9.90;52.31
65324;SHT31;51937;48.364;11.378;2022-11-12T00:34:49;9.91;52.22
65324;SHT31;51937;48.364;11.378;2022-11-12T00:37:15;9.91;52.19
65324;SHT31;51937;48.364;11.378;2022-11-12T00:39:41;9.91;52.20
65324;SHT31;51937;48.364;11.378;2022-11-12T00:42:06;9.86;52.26
65324;SHT31;51937;48.364;11.378;2022-11-12T00:44:31;9.83;52.26
65324;SHT31;51937;48.364;11.378;2022-11-12T00:46:57;9.83;52.19
65324;SHT31;51937;48.364;11.378;2022-11-12T00:49:22;9.81;52.23
65324;SHT31;51937;48.364;11.378;2022-11-12T00:51:48;9.80;52.23
65324;SHT31;51937;48.364;11.378;2022-11-12T00:54:14;9.79;52.26
65324;SHT31;51937;48.364;11.378;2022-11-12T00:56:39;9.79;52.26
65324;SHT31;51937;48.364;11.378;2022-11-12T00:59:05;9.70;52.31
65324;SHT31;51937;48.364;11.378;2022-11-12T01:01:30;9.63;52.38
65324;SHT31;51937;48.364;11.378;2022-11-12T01:03:57;9.54;52.47
65324;SHT31;51937;48.364;11.378;2022-11-12T01:06:23;9.52;52.49
65324;SHT31;51937;48.364;11.378;2022-11-12T01:08:49;9.50;52.51
65324;SHT31;51937;48.364;11.378;2022-11-12T01:11:20;9.46;52.48
65324;SHT31;51937;48.364;11.378;2022-11-12T01:13:53;9.40;52.47
65324;SHT31;51937;48.364;11.378;2022-11-12T01:16:21;9.43;52.46
65324;SHT31;51937;48.364;11.378;2022-11-12T01:18:47;9.40;52.46
65324;SHT31;51937;48.364;11.378;2022-11-12T01:21:16;9.38;52.51
65324;SHT31;51937;48.364;11.378;2022-11-12T01:23:41;9.40;52.52
65324;SHT31;51937;48.364;11.378;2022-11-12T01:26:10;9.39;52.49
65324;SHT31;51937;48.364;11.378;2022-11-12T01:28:36;9.46;52.39
65324;SHT31;51937;48.364;11.378;2022-11-12T01:31:20;9.45;52.53
65324;SHT31;51937;48.364;11.378;2022-11-12T01:33:49;9.47;52.46
65324;SHT31;51937;48.364;11.378;2022-11-12T01:36:17;9.49;52.46
65324;SHT31;51937;48.364;11.378;2022-11-12T01:38:43;9.50;52.51
65324;SHT31;51937;48.364;11.378;2022-11-12T01:41:12;9.56;52.51
65324;SHT31;51937;48.364;11.378;2022-11-12T01:43:38;9.56;52.46
65324;SHT31;51937;48.364;11.378;2022-11-12T01:46:11;9.57;52.46
65324;SHT31;51937;48.364;11.378;2022-11-12T01:48:43;9.57;52.55
65324;SHT31;51937;48.364;11.378;2022-11-12T01:51:12;9.59;52.69
65324;SHT31;51937;48.364;11.378;2022-11-12T01:53:42;9.60;52.70
65324;SHT31;51937;48.364;11.378;2022-11-12T01:56:09;9.60;52.71
65324;SHT31;51937;48.364;11.378;2022-11-12T01:58:36;9.63;52.68
65324;SHT31;51937;48.364;11.378;2022-11-12T02:01:02;9.64;52.66
65324;SHT31;51937;48.364;11.378;2022-11-12T02:03:28;9.66;52.79
65324;SHT31;51937;48.364;11.378;2022-11-12T02:06:00;9.63;52.76
65324;SHT31;51937;48.364;11.378;2022-11-12T02:08:28;9.69;52.66
65324;SHT31;51937;48.364;11.378;2022-11-12T02:10:54;9.70;52.65
65324;SHT31;51937;48.364;11.378;2022-11-12T02:13:19;9.69;52.66
65324;SHT31;51937;48.364;11.378;2022-11-12T02:16:04;9.70;52.72
65324;SHT31;51937;48.364;11.378;2022-11-12T02:18:30;9.74;52.72
65324;SHT31;51937;48.364;11.378;2022-11-12T02:20:57;9.73;52.75
65324;SHT31;51937;48.364;11.378;2022-11-12T02:23:23;9.73;52.75
65324;SHT31;51937;48.364;11.378;2022-11-12T02:25:48;9.74;52.81
65324;SHT31;51937;48.364;11.378;2022-11-12T02:28:14;9.76;52.75
65324;SHT31;51937;48.364;11.378;2022-11-12T02:30:48;9.74;52.83
65324;SHT31;51937;48.364;11.378;2022-11-12T02:33:13;9.77;52.85
65324;SHT31;51937;48.364;11.378;2022-11-12T02:35:39;9.77;52.84
65324;SHT31;51937;48.364;11.378;2022-11-12T02:38:05;9.77;52.89
65324;SHT31;51937;48.364;11.378;2022-11-12T02:40:31;9.76;52.92
65324;SHT31;51937;48.364;11.378;2022-11-12T02:42:57;9.77;52.93
65324;SHT31;51937;48.364;11.378;2022-11-12T02:45:23;9.77;52.93
65324;SHT31;51937;48.364;11.378;2022-11-12T02:47:48;9.79;52.91
65324;SHT31;51937;48.364;11.378;2022-11-12T02:50:14;9.79;52.90
65324;SHT31;51937;48.364;11.378;2022-11-12T02:52:39;9.79;52.92
65324;SHT31;51937;48.364;11.378;2022-11-12T02:55:09;9.79;52.94
65324;SHT31;51937;48.364;11.378;2022-11-12T02:57:36;9.80;52.94
65324;SHT31;51937;48.364;11.378;2022-11-12T03:00:08;9.80;52.99
65324;SHT31;51937;48.364;11.378;2022-11-12T03:02:34;9.79;53.04
65324;SHT31;51937;48.364;11.378;2022-11-12T03:05:10;9.84;52.98
65324;SHT31;51937;48.364;11.378;2022-11-12T03:07:35;9.83;53.03
65324;SHT31;51937;48.364;11.378;2022-11-12T03:10:01;9.84;52.99
65324;SHT31;51937;48.364;11.378;2022-11-12T03:12:29;9.83;52.99
65324;SHT31;51937;48.364;11.378;2022-11-12T03:14:55;9.83;52.98
65324;SHT31;51937;48.364;11.378;2022-11-12T03:17:20;9.86;52.96
65324;SHT31;51937;48.364;11.378;2022-11-12T03:19:45;9.87;52.94
65324;SHT31;51937;48.364;11.378;2022-11-12T03:22:11;9.86;52.85
65324;SHT31;51937;48.364;11.378;2022-11-12T03:24:36;9.88;52.84
65324;SHT31;51937;48.364;11.378;2022-11-12T03:27:01;9.87;52.87
65324;SHT31;51937;48.364;11.378;2022-11-12T03:29:26;9.87;52.88
65324;SHT31;51937;48.364;11.378;2022-11-12T03:31:52;9.86;52.87
65324;SHT31;51937;48.364;11.378;2022-11-12T03:34:17;9.83;52.89
65324;SHT31;51937;48.364;11.378;2022-11-12T03:36:42;9.81;52.85
65324;SHT31;51937;48.364;11.378;2022-11-12T03:39:08;9.86;52.83
65324;SHT31;51937;48.364;11.378;2022-11-12T03:41:33;9.87;52.81
65324;SHT31;51937;48.364;11.378;2022-11-12T03:43:59;9.84;52.76
65324;SHT31;51937;48.364;11.378;2022-11-12T03:46:24;9.84;52.71
65324;SHT31;51937;48.364;11.378;2022-11-12T03:48:49;9.84;52.68
65324;SHT31;51937;48.364;11.378;2022-11-12T03:51:15;9.81;52.68
65324;SHT31;51937;48.364;11.378;2022-11-12T03:53:41;9.81;52.68
65324;SHT31;51937;48.364;11.378;2022-11-12T03:56:06;9.81;52.70
65324;SHT31;51937;48.364;11.378;2022-11-12T03:58:32;9.83;52.69
65324;SHT31;51937;48.364;11.378;2022-11-12T04:00:57;9.81;52.70
65324;SHT31;51937;48.364;11.378;2022-11-12T04:03:23;9.79;52.73
65324;SHT31;51937;48.364;11.378;2022-11-12T04:05:48;9.76;52.81
65324;SHT31;51937;48.364;11.378;2022-11-12T04:08:32;9.74;52.88
65324;SHT31;51937;48.364;11.378;2022-11-12T04:11:03;9.73;52.93
65324;SHT31;51937;48.364;11.378;2022-11-12T04:13:29;9.76;52.96
65324;SHT31;51937;48.364;11.378;2022-11-12T04:18:38;9.73;52.96
65324;SHT31;51937;48.364;11.378;2022-11-12T04:21:26;9.69;53.01
65324;SHT31;51937;48.364;11.378;2022-11-12T04:24:24;9.70;53.01
65324;SHT31;51937;48.364;11.378;2022-11-12T04:27:17;9.67;53.00
65324;SHT31;51937;48.364;11.378;2022-11-12T04:29:44;9.69;52.92
65324;SHT31;51937;48.364;11.378;2022-11-12T04:32:29;9.69;52.98
65324;SHT31;51937;48.364;11.378;2022-11-12T04:34:55;9.67;53.03
65324;SHT31;51937;48.364;11.378;2022-11-12T04:37:23;9.69;53.06
65324;SHT31;51937;48.364;11.378;2022-11-12T04:39:49;9.67;53.11
65324;SHT31;51937;48.364;11.378;2022-11-12T04:42:14;9.69;53.14
65324;SHT31;51937;48.364;11.378;2022-11-12T04:44:58;9.66;53.14
65324;SHT31;51937;48.364;11.378;2022-11-12T04:47:27;9.70;53.16
65324;SHT31;51937;48.364;11.378;2022-11-12T04:49:53;9.69;53.17
65324;SHT31;51937;48.364;11.378;2022-11-12T04:52:18;9.67;53.19
65324;SHT31;51937;48.364;11.378;2022-11-12T04:54:44;9.64;53.14
65324;SHT31;51937;48.364;11.378;2022-11-12T04:57:09;9.67;53.17
65324;SHT31;51937;48.364;11.378;2022-11-12T04:59:34;9.66;53.12
65324;SHT31;51937;48.364;11.378;2022-11-12T05:02:00;9.67;53.12
65324;SHT31;51937;48.364;11.378;2022-11-12T05:04:25;9.66;53.11
65324;SHT31;51937;48.364;11.378;2022-11-12T05:06:57;9.64;53.12
65324;SHT31;51937;48.364;11.378;2022-11-12T05:09:25;9.64;53.09
65324;SHT31;51937;48.364;11.378;2022-11-12T05:11:51;9.66;53.03
65324;SHT31;51937;48.364;11.378;2022-11-12T05:14:17;9.63;53.10
65324;SHT31;51937;48.364;11.378;2022-11-12T05:16:43;9.62;53.11
65324;SHT31;51937;48.364;11.378;2022-11-12T05:19:09;9.63;53.08
65324;SHT31;51937;48.364;11.378;2022-11-12T05:21:34;9.63;53.12
65324;SHT31;51937;48.364;11.378;2022-11-12T05:24:18;9.59;53.11
65324;SHT31;51937;48.364;11.378;2022-11-12T05:26:44;9.62;53.09
65324;SHT31;51937;48.364;11.378;2022-11-12T05:29:09;9.59;53.13
65324;SHT31;51937;48.364;11.378;2022-11-12T05:31:34;9.56;53.14
65324;SHT31;51937;48.364;11.378;2022-11-12T05:34:00;9.57;53.15
65324;SHT31;51937;48.364;11.378;2022-11-12T05:36:25;9.57;53.16
65324;SHT31;51937;48.364;11.378;2022-11-12T05:38:50;9.54;53.14
65324;SHT31;51937;48.364;11.378;2022-11-12T05:41:16;9.56;53.14
65324;SHT31;51937;48.364;11.378;2022-11-12T05:43:41;9.57;53.15
65324;SHT31;51937;48.364;11.378;2022-11-12T05:46:06;9.56;53.13
65324;SHT31;51937;48.364;11.378;2022-11-12T05:48:32;9.54;53.18
65324;SHT31;51937;48.364;11.378;2022-11-12T05:50:57;9.53;53.15
65324;SHT31;51937;48.364;11.378;2022-11-12T05:53:22;9.54;53.13
65324;SHT31;51937;48.364;11.378;2022-11-12T05:55:48;9.52;53.08
65324;SHT31;51937;48.364;11.378;2022-11-12T05:58:13;9.54;53.06
65324;SHT31;51937;48.364;11.378;2022-11-12T06:00:46;9.53;53.03
65324;SHT31;51937;48.364;11.378;2022-11-12T06:03:12;9.54;53.01
65324;SHT31;51937;48.364;11.378;2022-11-12T06:05:38;9.56;52.98
65324;SHT31;51937;48.364;11.378;2022-11-12T06:08:04;9.54;52.98
65324;SHT31;51937;48.364;11.378;2022-11-12T06:10:31;9.49;53.00
65324;SHT31;51937;48.364;11.378;2022-11-12T06:12:57;9.50;53.10
65324;SHT31;51937;48.364;11.378;2022-11-12T06:15:23;9.49;53.09
65324;SHT31;51937;48.364;11.378;2022-11-12T06:17:51;9.47;53.09
65324;SHT31;51937;48.364;11.378;2022-11-12T06:20:17;9.49;53.09
65324;SHT31;51937;48.364;11.378;2022-11-12T06:22:42;9.47;53.05
65324;SHT31;51937;48.364;11.378;2022-11-12T06:25:08;9.47;53.09
65324;SHT31;51937;48.364;11.378;2022-11-12T06:27:33;9.45;53.03
65324;SHT31;51937;48.364;11.378;2022-11-12T06:29:58;9.45;53.04
65324;SHT31;51937;48.364;11.378;2022-11-12T06:32:24;9.43;53.12
65324;SHT31;51937;48.364;11.378;2022-11-12T06:34:49;9.42;53.19
65324;SHT31;51937;48.364;11.378;2022-11-12T06:37:17;9.42;53.24
65324;SHT31;51937;48.364;11.378;2022-11-12T06:39:42;9.40;53.19
65324;SHT31;51937;48.364;11.378;2022-11-12T06:42:07;9.40;53.14
65324;SHT31;51937;48.364;11.378;2022-11-12T06:44:33;9.42;53.17
65324;SHT31;51937;48.364;11.378;2022-11-12T06:46:58;9.40;53.23
65324;SHT31;51937;48.364;11.378;2022-11-12T06:49:23;9.39;53.26
65324;SHT31;51937;48.364;11.378;2022-11-12T06:52:10;9.39;53.28
65324;SHT31;51937;48.364;11.378;2022-11-12T06:54:35;9.38;53.28
65324;SHT31;51937;48.364;11.378;2022-11-12T06:57:00;9.38;53.29
65324;SHT31;51937;48.364;11.378;2022-11-12T06:59:25;9.36;53.29
65324;SHT31;51937;48.364;11.378;2022-11-12T07:01:51;9.39;53.32
65324;SHT31;51937;48.364;11.378;2022-11-12T07:04:16;9.39;53.29
65324;SHT31;51937;48.364;11.378;2022-11-12T07:06:42;9.40;53.29
65324;SHT31;51937;48.364;11.378;2022-11-12T07:09:07;9.45;53.17
65324;SHT31;51937;48.364;11.378;2022-11-12T07:11:33;9.45;53.18
65324;SHT31;51937;48.364;11.378;2022-11-12T07:13:58;9.46;53.20
65324;SHT31;51937;48.364;11.378;2022-11-12T07:16:23;9.43;53.24
65324;SHT31;51937;48.364;11.378;2022-11-12T07:18:49;9.45;53.25
65324;SHT31;51937;48.364;11.378;2022-11-12T07:21:17;9.45;53.32
65324;SHT31;51937;48.364;11.378;2022-11-12T07:23:43;9.45;53.32
65324;SHT31;51937;48.364;11.378;2022-11-12T07:26:16;9.43;53.36
65324;SHT31;51937;48.364;11.378;2022-11-12T07:28:43;9.45;53.32
65324;SHT31;51937;48.364;11.378;2022-11-12T07:31:13;9.46;53.35
65324;SHT31;51937;48.364;11.378;2022-11-12T07:33:41;9.50;53.33
65324;SHT31;51937;48.364;11.378;2022-11-12T07:36:11;9.50;53.28
65324;SHT31;51937;48.364;11.378;2022-11-12T07:38:38;9.52;53.28
65324;SHT31;51937;48.364;11.378;2022-11-12T07:41:14;9.53;53.30
65324;SHT31;51937;48.364;11.378;2022-11-12T07:43:41;9.56;53.28
65324;SHT31;51937;48.364;11.378;2022-11-12T07:46:10;9.54;53.29
65324;SHT31;51937;48.364;11.378;2022-11-12T07:48:35;9.56;53.34
65324;SHT31;51937;48.364;11.378;2022-11-12T07:51:06;9.59;53.33
65324;SHT31;51937;48.364;11.378;2022-11-12T07:53:33;9.60;53.37
65324;SHT31;51937;48.364;11.378;2022-11-12T07:56:00;9.60;53.35
65324;SHT31;51937;48.364;11.378;2022-11-12T07:58:30;9.64;53.39
65324;SHT31;51937;48.364;11.378;2022-11-12T08:00:57;9.67;53.42
65324;SHT31;51937;48.364;11.378;2022-11-12T08:03:22;9.67;53.46
65324;SHT31;51937;48.364;11.378;2022-11-12T08:05:47;9.67;53.48
65324;SHT31;51937;48.364;11.378;2022-11-12T08:08:13;9.70;53.50
65324;SHT31;51937;48.364;11.378;2022-11-12T08:10:38;9.71;53.53
65324;SHT31;51937;48.364;11.378;2022-11-12T08:13:04;9.77;53.50
65324;SHT31;51937;48.364;11.378;2022-11-12T08:15:30;9.83;53.39
65324;SHT31;51937;48.364;11.378;2022-11-12T08:17:56;9.87;53.45
65324;SHT31;51937;48.364;11.378;2022-11-12T08:20:21;9.88;53.46
65324;SHT31;51937;48.364;11.378;2022-11-12T08:22:50;9.90;53.50
65324;SHT31;51937;48.364;11.378;2022-11-12T08:25:15;9.93;53.46
65324;SHT31;51937;48.364;11.378;2022-11-12T08:27:41;9.98;53.48
65324;SHT31;51937;48.364;11.378;2022-11-12T08:30:07;9.98;53.41
65324;SHT31;51937;48.364;11.378;2022-11-12T08:32:32;10.05;53.42
65324;SHT31;51937;48.364;11.378;2022-11-12T08:34:58;10.07;53.47
65324;SHT31;51937;48.364;11.378;2022-11-12T08:37:23;10.15;53.52
65324;SHT31;51937;48.364;11.378;2022-11-12T08:39:48;10.18;53.50
65324;SHT31;51937;48.364;11.378;2022-11-12T08:42:14;10.14;53.53
65324;SHT31;51937;48.364;11.378;2022-11-12T08:44:39;10.17;53.63
65324;SHT31;51937;48.364;11.378;2022-11-12T08:47:04;10.21;53.63
65324;SHT31;51937;48.364;11.378;2022-11-12T08:49:30;10.24;53.65
65324;SHT31;51937;48.364;11.378;2022-11-12T08:51:55;10.32;53.57
65324;SHT31;51937;48.364;11.378;2022-11-12T08:54:22;10.39;53.58
65324;SHT31;51937;48.364;11.378;2022-11-12T08:56:47;10.43;53.59
65324;SHT31;51937;48.364;11.378;2022-11-12T08:59:12;10.48;53.58
65324;SHT31;51937;48.364;11.378;2022-11-12T09:01:37;10.55;53.54
65324;SHT31;51937;48.364;11.378;2022-11-12T09:04:03;10.60;53.56
65324;SHT31;51937;48.364;11.378;2022-11-12T09:06:29;10.63;53.61
65324;SHT31;51937;48.364;11.378;2022-11-12T09:08:54;10.74;53.59
65324;SHT31;51937;48.364;11.378;2022-11-12T09:11:19;10.80;53.53
65324;SHT31;51937;48.364;11.378;2022-11-12T09:13:45;10.84;53.58
65324;SHT31;51937;48.364;11.378;2022-11-12T09:16:13;10.90;53.60
65324;SHT31;51937;48.364;11.378;2022-11-12T09:18:38;10.93;53.60
65324;SHT31;51937;48.364;11.378;2022-11-12T09:21:09;11.00;53.64
65324;SHT31;51937;48.364;11.378;2022-11-12T09:23:49;11.08;53.63
65324;SHT31;51937;48.364;11.378;2022-11-12T09:26:14;11.14;53.63
65324;SHT31;51937;48.364;11.378;2022-11-12T09:28:40;11.19;53.57
65324;SHT31;51937;48.364;11.378;2022-11-12T09:31:06;11.24;53.59
65324;SHT31;51937;48.364;11.378;2022-11-12T09:33:32;11.29;53.52
65324;SHT31;51937;48.364;11.378;2022-11-12T09:36:02;11.31;53.54
65324;SHT31;51937;48.364;11.378;2022-11-12T09:38:28;11.32;53.56
65324;SHT31;51937;48.364;11.378;2022-11-12T09:41:19;11.35;53.54
65324;SHT31;51937;48.364;11.378;2022-11-12T09:43:53;11.43;53.45
65324;SHT31;51937;48.364;11.378;2022-11-12T09:48:57;11.45;53.33
65324;SHT31;51937;48.364;11.378;2022-11-12T09:51:33;11.40;53.39
65324;SHT31;51937;48.364;11.378;2022-11-12T09:54:04;11.32;53.47
65324;SHT31;51937;48.364;11.378;2022-11-12T09:56:31;11.34;53.54
65324;SHT31;51937;48.364;11.378;2022-11-12T09:58:56;11.38;53.45
65324;SHT31;51937;48.364;11.378;2022-11-12T10:01:39;11.34;53.41
65324;SHT31;51937;48.364;11.378;2022-11-12T10:04:43;11.32;53.45
65324;SHT31;51937;48.364;11.378;2022-11-12T10:07:23;11.32;53.39
65324;SHT31;51937;48.364;11.378;2022-11-12T10:10:04;11.29;53.37
65324;SHT31;51937;48.364;11.378;2022-11-12T10:15:49;11.21;53.55
65324;SHT31;51937;48.364;11.378;2022-11-12T10:24:08;11.32;53.41
65324;SHT31;51937;48.364;11.378;2022-11-12T10:26:36;11.36;53.34
65324;SHT31;51937;48.364;11.378;2022-11-12T10:29:06;11.35;53.35
65324;SHT31;51937;48.364;11.378;2022-11-12T10:31:37;11.32;53.41
65324;SHT31;51937;48.364;11.378;2022-11-12T10:36:38;11.25;53.60
65324;SHT31;51937;48.364;11.378;2022-11-12T10:39:04;11.25;53.68
65324;SHT31;51937;48.364;11.378;2022-11-12T10:41:33;11.32;53.62
65324;SHT31;51937;48.364;11.378;2022-11-12T10:44:06;11.31;53.67
65324;SHT31;51937;48.364;11.378;2022-11-12T10:46:37;11.36;53.65
65324;SHT31;51937;48.364;11.378;2022-11-12T10:51:40;11.53;53.60
65324;SHT31;51937;48.364;11.378;2022-11-12T10:56:51;11.62;53.59
65324;SHT31;51937;48.364;11.378;2022-11-12T10:59:19;11.62;53.68
65324;SHT31;51937;48.364;11.378;2022-11-12T11:01:53;11.65;53.70
65324;SHT31;51937;48.364;11.378;2022-11-12T11:04:34;11.63;53.79
65324;SHT31;51937;48.364;11.378;2022-11-12T11:07:06;11.59;53.87
65324;SHT31;51937;48.364;11.378;2022-11-12T11:09:51;11.59;54.00
65324;SHT31;51937;48.364;11.378;2022-11-12T11:12:27;11.65;53.98
65324;SHT31;51937;48.364;11.378;2022-11-12T11:17:34;11.76;53.94
65324;SHT31;51937;48.364;11.378;2022-11-12T11:20:01;11.74;54.05
65324;SHT31;51937;48.364;11.378;2022-11-12T11:22:40;11.73;54.17
65324;SHT31;51937;48.364;11.378;2022-11-12T11:25:20;11.83;54.11
65324;SHT31;51937;48.364;11.378;2022-11-12T11:30:21;11.95;53.94
65324;SHT31;51937;48.364;11.378;2022-11-12T11:47:11;12.31;53.79
65324;SHT31;51937;48.364;11.378;2022-11-12T11:55:27;12.45;53.67
65324;SHT31;51937;48.364;11.378;2022-11-12T11:58:02;12.48;53.66
65324;SHT31;51937;48.364;11.378;2022-11-12T12:06:23;12.45;53.67
65324;SHT31;51937;48.364;11.378;2022-11-12T12:17:31;12.48;53.73
65324;SHT31;51937;48.364;11.378;2022-11-12T12:22:55;12.53;53.68
65324;SHT31;51937;48.364;11.378;2022-11-12T12:25:30;12.56;53.76
65324;SHT31;51937;48.364;11.378;2022-11-12T12:30:25;12.63;53.74
65324;SHT31;51937;48.364;11.378;2022-11-12T12:32:58;12.62;53.82
65324;SHT31;51937;48.364;11.378;2022-11-12T12:35:43;12.57;53.90
65324;SHT31;51937;48.364;11.378;2022-11-12T12:38:31;12.64;53.87
65324;SHT31;51937;48.364;11.378;2022-11-12T12:41:05;12.72;53.75
65324;SHT31;51937;48.364;11.378;2022-11-12T12:43:39;12.72;53.77
65324;SHT31;51937;48.364;11.378;2022-11-12T12:46:10;12.66;53.88
65324;SHT31;51937;48.364;11.378;2022-11-12T12:48:39;12.60;54.02
65324;SHT31;51937;48.364;11.378;2022-11-12T12:51:06;12.64;54.06
65324;SHT31;51937;48.364;11.378;2022-11-12T12:53:34;12.57;54.17
65324;SHT31;51937;48.364;11.378;2022-11-12T12:56:01;12.62;54.10
65324;SHT31;51937;48.364;11.378;2022-11-12T12:58:30;12.59;54.07
65324;SHT31;51937;48.364;11.378;2022-11-12T13:09:02;12.66;54.04
65324;SHT31;51937;48.364;11.378;2022-11-12T13:37:48;12.79;54.21
65324;SHT31;51937;48.364;11.378;2022-11-12T13:46:01;12.72;54.29
65324;SHT31;51937;48.364;11.378;2022-11-12T13:51:45;12.73;54.38
65324;SHT31;51937;48.364;11.378;2022-11-12T13:54:31;12.81;54.33
65324;SHT31;51937;48.364;11.378;2022-11-12T13:59:47;12.84;54.28
65324;SHT31;51937;48.364;11.378;2022-11-12T14:02:22;12.91;54.27
65324;SHT31;51937;48.364;11.378;2022-11-12T14:04:49;12.97;54.19
65324;SHT31;51937;48.364;11.378;2022-11-12T14:20:37;13.06;54.15
65324;SHT31;51937;48.364;11.378;2022-11-12T14:23:11;13.03;54.16
65324;SHT31;51937;48.364;11.378;2022-11-12T14:25:48;13.00;54.21
65324;SHT31;51937;48.364;11.378;2022-11-12T14:28:32;13.01;54.23
65324;SHT31;51937;48.364;11.378;2022-11-12T14:30:59;13.06;54.08
65324;SHT31;51937;48.364;11.378;2022-11-12T14:33:26;13.07;54.10
65324;SHT31;51937;48.364;11.378;2022-11-12T14:36:04;13.10;54.13
65324;SHT31;51937;48.364;11.378;2022-11-12T14:38:39;13.11;54.04
65324;SHT31;51937;48.364;11.378;2022-11-12T14:41:14;13.04;54.13
65324;SHT31;51937;48.364;11.378;2022-11-12T14:43:43;13.00;54.15
65324;SHT31;51937;48.364;11.378;2022-11-12T14:46:22;12.98;54.21
65324;SHT31;51937;48.364;11.378;2022-11-12T14:48:55;13.01;54.05
65324;SHT31;51937;48.364;11.378;2022-11-12T14:51:24;13.00;54.03
65324;SHT31;51937;48.364;11.378;2022-11-12T14:53:55;12.93;54.12
65324;SHT31;51937;48.364;11.378;2022-11-12T14:56:32;12.91;54.22
65324;SHT31;51937;48.364;11.378;2022-11-12T14:58:59;12.93;54.11
65324;SHT31;51937;48.364;11.378;2022-11-12T15:01:33;12.94;54.20
65324;SHT31;51937;48.364;11.378;2022-11-12T15:04:24;12.96;54.12
65324;SHT31;51937;48.364;11.378;2022-11-12T15:06:52;12.98;54.13
65324;SHT31;51937;48.364;11.378;2022-11-12T15:09:30;12.96;54.14
65324;SHT31;51937;48.364;11.378;2022-11-12T15:11:56;12.98;54.13
65324;SHT31;51937;48.364;11.378;2022-11-12T15:14:23;12.91;54.18
65324;SHT31;51937;48.364;11.378;2022-11-12T15:16:49;12.93;54.16
65324;SHT31;51937;48.364;11.378;2022-11-12T15:19:16;12.96;54.11
65324;SHT31;51937;48.364;11.378;2022-11-12T15:21:50;12.94;54.16
65324;SHT31;51937;48.364;11.378;2022-11-12T15:24:33;12.86;54.20
65324;SHT31;51937;48.364;11.378;2022-11-12T15:27:02;12.86;54.16
65324;SHT31;51937;48.364;11.378;2022-11-12T15:29:46;12.87;54.18
65324;SHT31;51937;48.364;11.378;2022-11-12T15:37:10;12.91;54.07
65324;SHT31;51937;48.364;11.378;2022-11-12T15:39:42;12.91;54.06
65324;SHT31;51937;48.364;11.378;2022-11-12T15:44:48;12.87;54.14
65324;SHT31;51937;48.364;11.378;2022-11-12T15:47:18;12.80;54.29
65324;SHT31;51937;48.364;11.378;2022-11-12T15:49:51;12.69;54.40
65324;SHT31;51937;48.364;11.378;2022-11-12T15:52:17;12.67;54.44
65324;SHT31;51937;48.364;11.378;2022-11-12T15:54:43;12.69;54.43
65324;SHT31;51937;48.364;11.378;2022-11-12T15:57:22;12.67;54.48
65324;SHT31;51937;48.364;11.378;2022-11-12T15:59:58;12.67;54.44
65324;SHT31;51937;48.364;11.378;2022-11-12T16:02:24;12.67;54.42
65324;SHT31;51937;48.364;11.378;2022-11-12T16:04:50;12.60;54.57
65324;SHT31;51937;48.364;11.378;2022-11-12T16:07:15;12.48;54.75
65324;SHT31;51937;48.364;11.378;2022-11-12T16:09:40;12.36;54.93
65324;SHT31;51937;48.364;11.378;2022-11-12T16:12:10;12.29;55.04
65324;SHT31;51937;48.364;11.378;2022-11-12T16:14:36;12.22;55.15
65324;SHT31;51937;48.364;11.378;2022-11-12T16:17:01;12.15;55.29
65324;SHT31;51937;48.364;11.378;2022-11-12T16:19:26;12.11;55.25
65324;SHT31;51937;48.364;11.378;2022-11-12T16:21:52;12.07;55.29
65324;SHT31;51937;48.364;11.378;2022-11-12T16:24:17;12.05;55.34
65324;SHT31;51937;48.364;11.378;2022-11-12T16:26:43;12.05;55.34
65324;SHT31;51937;48.364;11.378;2022-11-12T16:29:11;12.00;55.36
65324;SHT31;51937;48.364;11.378;2022-11-12T16:31:37;11.98;55.34
65324;SHT31;51937;48.364;11.378;2022-11-12T16:34:02;11.97;55.38
65324;SHT31;51937;48.364;11.378;2022-11-12T16:36:27;11.94;55.37
65324;SHT31;51937;48.364;11.378;2022-11-12T16:38:53;11.93;55.33
65324;SHT31;51937;48.364;11.378;2022-11-12T16:41:18;11.93;55.25
65324;SHT31;51937;48.364;11.378;2022-11-12T16:43:43;11.89;55.27
65324;SHT31;51937;48.364;11.378;2022-11-12T16:46:21;11.87;55.29
65324;SHT31;51937;48.364;11.378;2022-11-12T16:48:47;11.89;55.20
65324;SHT31;51937;48.364;11.378;2022-11-12T16:51:15;11.86;55.23
65324;SHT31;51937;48.364;11.378;2022-11-12T16:53:41;11.87;55.23
65324;SHT31;51937;48.364;11.378;2022-11-12T16:56:16;11.83;55.30
65324;SHT31;51937;48.364;11.378;2022-11-12T16:58:42;11.81;55.25
65324;SHT31;51937;48.364;11.378;2022-11-12T17:01:12;11.80;55.29
65324;SHT31;51937;48.364;11.378;2022-11-12T17:03:38;11.77;55.38
65324;SHT31;51937;48.364;11.378;2022-11-12T17:06:03;11.70;55.38
65324;SHT31;51937;48.364;11.378;2022-11-12T17:08:29;11.62;55.50
65324;SHT31;51937;48.364;11.378;2022-11-12T17:10:55;11.55;55.64
65324;SHT31;51937;48.364;11.378;2022-11-12T17:13:20;11.49;55.66
65324;SHT31;51937;48.364;11.378;2022-11-12T17:15:46;11.49;55.60
65324;SHT31;51937;48.364;11.378;2022-11-12T17:18:11;11.51;55.54
65324;SHT31;51937;48.364;11.378;2022-11-12T17:20:36;11.46;55.51
65324;SHT31;51937;48.364;11.378;2022-11-12T17:23:02;11.43;55.57
65324;SHT31;51937;48.364;11.378;2022-11-12T17:25:27;11.38;55.62
65324;SHT31;51937;48.364;11.378;2022-11-12T17:27:52;11.35;55.63
65324;SHT31;51937;48.364;11.378;2022-11-12T17:30:18;11.34;55.61
65324;SHT31;51937;48.364;11.378;2022-11-12T17:32:43;11.32;55.61
65324;SHT31;51937;48.364;11.378;2022-11-12T17:35:08;11.34;55.54
65324;SHT31;51937;48.364;11.378;2022-11-12T17:37:34;11.36;55.47
65324;SHT31;51937;48.364;11.378;2022-11-12T17:39:59;11.39;55.44
65324;SHT31;51937;48.364;11.378;2022-11-12T17:42:24;11.36;55.43
65324;SHT31;51937;48.364;11.378;2022-11-12T17:44:50;11.35;55.46
65324;SHT31;51937;48.364;11.378;2022-11-12T17:47:15;11.32;55.52